Time;durP1;ratioP1;P1;durP2;ratioP2;P2;SDS_P1;SDS_P2;PMS_P1;PMS_P2;Temp;Humidity;BMP_temperature;BMP_pressure;BME280_temperature;BME280_humidity;BME280_pressure;Samples;Min_cycle;Max_cycle;Signal;HPM_P1;HPM_P2
2021/06/04 00:01:22;;;;;;;3.50;1.27;;;14.30;67.20;;;;;;4359489;32;20062;-73
2021/06/04 00:03:49;;;;;;;3.17;1.58;;;14.20;67.10;;;;;;4333212;32;20523;-72
2021/06/04 00:06:15;;;;;;;4.45;1.25;;;14.20;67.40;;;;;;4365864;32;20088;-72
2021/06/04 00:08:41;;;;;;;6.47;1.73;;;14.20;67.40;;;;;;4336314;32;20156;-71
2021/06/04 00:11:19;;;;;;;2.60;1.50;;;14.20;67.60;;;;;;4357614;32;20449;-71
2021/06/04 00:13:57;;;;;;;4.70;1.40;;;14.20;67.20;;;;;;4359735;32;20054;-71
2021/06/04 00:16:32;;;;;;;1.15;1.05;;;14.20;67.30;;;;;;4353393;32;20073;-73
2021/06/04 00:19:00;;;;;;;1.75;0.70;;;14.20;67.20;;;;;;4359208;32;20063;-73
2021/06/04 00:21:29;;;;;;;2.72;0.88;;;14.20;67.60;;;;;;4344047;32;20497;-72
2021/06/04 00:23:58;;;;;;;6.18;1.58;;;14.20;67.60;;;;;;4340488;32;20062;-72
2021/06/04 00:26:24;;;;;;;3.70;1.58;;;14.10;67.90;;;;;;4345588;32;20075;-72
2021/06/04 00:28:51;;;;;;;4.00;1.30;;;14.10;67.60;;;;;;4344722;32;20075;-72
2021/06/04 00:31:17;;;;;;;1.67;1.00;;;14.20;68.80;;;;;;4322819;32;20069;-72
2021/06/04 00:33:44;;;;;;;2.45;1.23;;;14.20;67.10;;;;;;4348276;32;20136;-72
2021/06/04 00:36:10;;;;;;;1.60;1.27;;;14.20;67.10;;;;;;4345154;32;20085;-72
2021/06/04 00:38:36;;;;;;;4.62;2.00;;;14.20;67.50;;;;;;4341563;32;20072;-72
2021/06/04 00:41:18;;;;;;;3.03;0.70;;;14.10;67.70;;;;;;4346660;32;20453;-72
2021/06/04 00:43:45;;;;;;;4.90;1.50;;;14.10;67.50;;;;;;4343584;33;20476;-71
2021/06/04 00:46:11;;;;;;;1.98;0.90;;;14.10;67.50;;;;;;4341604;33;20164;-71
2021/06/04 00:48:37;;;;;;;4.57;1.25;;;14.10;67.30;;;;;;4335089;33;20059;-72
2021/06/04 00:51:15;;;;;;;3.15;1.15;;;14.10;67.40;;;;;;4360811;32;20097;-72
2021/06/04 00:53:42;;;;;;;4.18;1.30;;;14.10;67.00;;;;;;4328429;32;20456;-71
2021/06/04 00:56:08;;;;;;;2.62;1.37;;;14.10;67.70;;;;;;4335417;33;20066;-71
2021/06/04 00:58:42;;;;;;;3.45;1.27;;;14.10;67.60;;;;;;4335692;33;20510;-72
2021/06/04 01:01:09;;;;;;;1.50;1.10;;;14.00;67.80;;;;;;4323486;33;20095;-72
2021/06/04 01:03:45;;;;;;;3.10;1.20;;;14.10;67.70;;;;;;4328853;33;20073;-72
2021/06/04 01:06:34;;;;;;;2.72;1.50;;;14.00;67.20;;;;;;4338230;32;20071;-72
2021/06/04 01:09:30;;;;;;;1.17;1.00;;;14.00;67.80;;;;;;4338834;32;20079;-72
2021/06/04 01:12:08;;;;;;;3.70;1.50;;;14.00;67.60;;;;;;4342418;32;20083;-72
2021/06/04 01:15:06;;;;;;;2.25;1.20;;;14.00;68.00;;;;;;4326192;33;20083;-71
2021/06/04 01:18:03;;;;;;;3.40;1.17;;;14.00;67.90;;;;;;4335283;33;20095;-72
2021/06/04 01:20:44;;;;;;;1.52;1.10;;;14.00;68.00;;;;;;4330733;33;20415;-72
2021/06/04 01:23:33;;;;;;;4.45;1.62;;;14.00;68.30;;;;;;4322976;33;20560;-73
2021/06/04 01:26:09;;;;;;;4.00;1.60;;;14.00;68.30;;;;;;4347266;33;20461;-72
2021/06/04 01:28:52;;;;;;;4.28;1.67;;;14.00;68.60;;;;;;4321200;32;20071;-72
2021/06/04 01:31:48;;;;;;;2.28;1.42;;;14.00;68.30;;;;;;4300179;33;20523;-72
2021/06/04 01:34:30;;;;;;;2.37;1.17;;;14.00;68.40;;;;;;4334513;33;20504;-72
2021/06/04 01:37:20;;;;;;;5.25;1.60;;;14.10;68.20;;;;;;4301132;32;20066;-72
2021/06/04 01:39:51;;;;;;;6.72;1.42;;;14.10;68.10;;;;;;4330478;32;20861;-72
2021/06/04 01:42:21;;;;;;;2.03;1.12;;;14.00;68.10;;;;;;4341510;32;20090;-73
2021/06/04 01:44:56;;;;;;;4.72;1.40;;;14.10;67.90;;;;;;4343174;33;20070;-71
2021/06/04 01:47:32;;;;;;;2.60;1.27;;;14.00;68.10;;;;;;4322970;33;20071;-71
2021/06/04 01:49:59;;;;;;;3.30;1.45;;;14.10;68.40;;;;;;4332330;33;20094;-72
2021/06/04 01:52:33;;;;;;;3.37;1.27;;;14.00;67.80;;;;;;4341125;33;20646;-72
2021/06/04 01:55:11;;;;;;;2.40;1.12;;;14.00;67.80;;;;;;4346665;32;20074;-72
2021/06/04 01:57:46;;;;;;;3.20;1.23;;;14.00;68.20;;;;;;4344825;33;20102;-71
2021/06/04 02:00:58;;;;;;;5.50;1.45;;;14.00;67.50;;;;;;4328805;33;20063;-71
2021/06/04 02:03:24;;;;;;;3.25;1.45;;;14.10;68.50;;;;;;4324336;33;20462;-73
2021/06/04 02:05:53;;;;;;;2.20;0.73;;;14.10;68.60;;;;;;4335321;32;20091;-71
2021/06/04 02:08:52;;;;;;;1.50;1.30;;;14.10;67.80;;;;;;4334070;33;20101;-72
2021/06/04 02:11:29;;;;;;;2.53;0.95;;;14.20;68.10;;;;;;4335190;33;20081;-73
2021/06/04 02:13:56;;;;;;;2.37;1.50;;;14.10;68.10;;;;;;4337382;33;20160;-72
2021/06/04 02:16:38;;;;;;;5.47;1.80;;;14.10;67.70;;;;;;4321787;33;20497;-72
2021/06/04 02:19:37;;;;;;;3.08;1.98;;;14.10;67.90;;;;;;4335280;32;20105;-73
2021/06/04 02:22:29;;;;;;;2.53;1.70;;;14.10;68.40;;;;;;4333971;33;20114;-73
2021/06/04 02:25:05;;;;;;;3.65;1.60;;;14.20;67.90;;;;;;4321472;32;20074;-72
2021/06/04 02:27:57;;;;;;;5.18;1.77;;;14.10;67.80;;;;;;4329948;33;20482;-72
2021/06/04 02:30:40;;;;;;;2.42;1.20;;;14.20;67.40;;;;;;4328920;33;20509;-73
2021/06/04 02:33:13;;;;;;;3.35;1.48;;;14.20;67.50;;;;;;4345777;33;20150;-72
2021/06/04 02:36:20;;;;;;;4.03;1.67;;;14.20;67.00;;;;;;4338368;32;20079;-73
2021/06/04 02:39:01;;;;;;;6.53;2.20;;;14.20;66.60;;;;;;4340269;32;20079;-73
2021/06/04 02:41:41;;;;;;;5.10;1.85;;;14.20;66.80;;;;;;4323273;33;20070;-74
2021/06/04 02:44:20;;;;;;;4.07;1.70;;;14.30;66.60;;;;;;4335241;33;20082;-72
2021/06/04 02:47:13;;;;;;;8.05;2.05;;;14.30;66.90;;;;;;4341775;33;20066;-73
2021/06/04 02:49:40;;;;;;;6.30;1.90;;;14.30;66.90;;;;;;4333712;33;20433;-73
2021/06/04 02:52:31;;;;;;;3.47;1.87;;;14.30;66.90;;;;;;4329778;32;20054;-73
2021/06/04 02:54:59;;;;;;;4.00;1.50;;;14.40;66.50;;;;;;4332799;33;20497;-72
2021/06/04 02:57:29;;;;;;;1.73;1.15;;;14.40;66.20;;;;;;4309223;33;20059;-72
2021/06/04 02:59:55;;;;;;;4.87;1.40;;;14.50;65.50;;;;;;4333334;32;20086;-72
2021/06/04 03:02:31;;;;;;;5.07;1.52;;;14.40;65.60;;;;;;4323612;32;20074;-71
2021/06/04 03:05:11;;;;;;;3.45;1.33;;;14.50;65.60;;;;;;4332769;33;20075;-73
2021/06/04 03:07:40;;;;;;;6.53;1.75;;;14.60;65.30;;;;;;4321226;33;20093;-73
2021/06/04 03:10:32;;;;;;;8.45;1.80;;;14.60;66.00;;;;;;4329887;32;20541;-72
2021/06/04 03:12:58;;;;;;;5.87;1.90;;;14.50;65.40;;;;;;4332861;33;20075;-74
2021/06/04 03:15:36;;;;;;;4.20;1.45;;;14.50;65.70;;;;;;4334693;33;20079;-73
2021/06/04 03:18:02;;;;;;;4.87;1.40;;;14.50;65.60;;;;;;4315545;33;20079;-73
2021/06/04 03:20:34;;;;;;;10.55;2.08;;;14.50;65.50;;;;;;4342105;33;20142;-72
2021/06/04 03:23:00;;;;;;;1.17;0.95;;;14.50;66.50;;;;;;4333622;32;20562;-72
2021/06/04 03:25:34;;;;;;;6.00;1.65;;;14.50;66.20;;;;;;4321268;33;20066;-73
2021/06/04 03:28:01;;;;;;;9.07;1.70;;;14.50;66.70;;;;;;4328205;32;20082;-71
2021/06/04 03:30:31;;;;;;;4.53;1.60;;;14.60;66.40;;;;;;4321039;33;20063;-71
2021/06/04 03:32:57;;;;;;;3.67;1.40;;;14.50;67.30;;;;;;4322888;32;20147;-71
2021/06/04 03:35:24;;;;;;;4.70;1.83;;;14.50;67.20;;;;;;4321028;33;20199;-72
2021/06/04 03:37:51;;;;;;;4.30;1.98;;;14.60;68.00;;;;;;4335172;32;20227;-72
2021/06/04 03:40:22;;;;;;;2.12;1.20;;;14.50;69.50;;;;;;4333265;33;20071;-71
2021/06/04 03:42:49;;;;;;;2.95;1.45;;;14.80;68.90;;;;;;4324120;33;20526;-72
2021/06/04 03:45:26;;;;;;;2.75;1.08;;;14.80;66.90;;;;;;4333824;33;20090;-72
2021/06/04 03:47:52;;;;;;;1.83;0.88;;;14.80;66.10;;;;;;4315542;33;20180;-71
2021/06/04 03:50:19;;;;;;;2.58;1.50;;;14.80;66.60;;;;;;4329139;33;20078;-72
2021/06/04 03:52:45;;;;;;;5.50;2.10;;;14.60;69.00;;;;;;4345249;32;20074;-71
2021/06/04 03:55:13;;;;;;;4.03;2.17;;;14.80;71.40;;;;;;4321846;32;20095;-72
2021/06/04 03:57:40;;;;;;;8.55;1.65;;;14.80;70.80;;;;;;4312915;32;20083;-72
2021/06/04 04:00:20;;;;;;;7.22;1.60;;;14.60;75.80;;;;;;4327015;33;20196;-72
2021/06/04 04:02:46;;;;;;;2.40;1.60;;;14.90;72.70;;;;;;4322448;33;20082;-72
2021/06/04 04:05:13;;;;;;;1.52;1.23;;;15.00;72.50;;;;;;4333109;33;20090;-73
2021/06/04 04:07:39;;;;;;;3.10;1.73;;;15.00;69.20;;;;;;4327126;33;20090;-73
2021/06/04 04:10:07;;;;;;;4.60;2.20;;;15.00;68.90;;;;;;4341551;32;20066;-72
2021/06/04 04:12:34;;;;;;;2.58;1.48;;;15.00;68.60;;;;;;4322897;32;20506;-72
2021/06/04 04:15:00;;;;;;;5.65;2.10;;;15.20;69.20;;;;;;4334070;33;20086;-72
2021/06/04 04:17:29;;;;;;;3.33;1.80;;;15.20;69.00;;;;;;4324426;33;20067;-72
2021/06/04 04:19:56;;;;;;;4.28;1.87;;;15.20;68.80;;;;;;4324634;32;20074;-71
2021/06/04 04:22:23;;;;;;;5.47;1.80;;;15.10;70.60;;;;;;4340296;33;20098;-73
2021/06/04 04:24:49;;;;;;;5.70;1.95;;;15.20;74.50;;;;;;4323282;33;20067;-73
2021/06/04 04:27:15;;;;;;;6.20;2.37;;;15.30;78.60;;;;;;4347422;33;20110;-73
2021/06/04 04:29:41;;;;;;;6.60;1.85;;;15.10;82.90;;;;;;4341330;32;20078;-73
2021/06/04 04:32:13;;;;;;;4.55;1.85;;;15.20;88.30;;;;;;4342152;33;20575;-72
2021/06/04 04:34:41;;;;;;;3.85;1.55;;;15.10;84.00;;;;;;4335806;33;20089;-71
2021/06/04 04:37:07;;;;;;;2.22;1.62;;;15.10;88.30;;;;;;4330479;33;20106;-71
2021/06/04 04:39:36;;;;;;;6.03;2.50;;;15.30;82.70;;;;;;4349888;33;20062;-73
2021/06/04 04:42:05;;;;;;;2.72;1.55;;;15.30;83.20;;;;;;4341160;32;20519;-72
2021/06/04 04:44:34;;;;;;;3.62;1.55;;;15.30;84.70;;;;;;4322747;33;20527;-72
2021/06/04 04:47:02;;;;;;;2.35;1.62;;;15.40;79.20;;;;;;4347037;32;20082;-72
2021/06/04 04:49:28;;;;;;;4.00;1.62;;;15.40;78.70;;;;;;4345656;33;20082;-71
2021/06/04 04:51:55;;;;;;;4.70;1.90;;;15.50;76.80;;;;;;4330300;32;20082;-72
2021/06/04 04:54:21;;;;;;;7.60;2.53;;;15.50;74.50;;;;;;4352280;32;20664;-72
2021/06/04 04:56:48;;;;;;;4.12;1.87;;;15.60;73.00;;;;;;4337470;32;20083;-71
2021/06/04 04:59:14;;;;;;;2.72;1.45;;;15.70;71.50;;;;;;4346990;33;20071;-72
2021/06/04 05:01:41;;;;;;;0.20;0.20;;;15.70;72.40;;;;;;4329514;33;20071;-72
2021/06/04 05:04:07;;;;;;;2.65;1.58;;;15.80;70.90;;;;;;4336101;32;20498;-73
2021/06/04 05:06:35;;;;;;;4.80;2.28;;;15.80;70.60;;;;;;4332560;32;20173;-66
2021/06/04 05:09:04;;;;;;;2.47;1.95;;;15.90;70.30;;;;;;4332767;32;20113;-66
2021/06/04 05:11:30;;;;;;;3.87;1.92;;;15.90;70.30;;;;;;4331593;32;20124;-67
2021/06/04 05:13:56;;;;;;;5.30;2.12;;;16.00;69.30;;;;;;4336429;32;20090;-66
2021/06/04 05:16:22;;;;;;;3.22;2.05;;;16.00;69.70;;;;;;4333537;32;20155;-65
2021/06/04 05:18:49;;;;;;;6.15;2.50;;;16.00;70.10;;;;;;4341587;32;20078;-65
2021/06/04 05:21:16;;;;;;;5.12;2.35;;;16.10;70.20;;;;;;4340561;33;20223;-65
2021/06/04 05:23:42;;;;;;;9.45;2.67;;;16.20;69.60;;;;;;4332284;32;20218;-65
2021/06/04 05:26:09;;;;;;;4.72;2.37;;;16.20;69.60;;;;;;4322586;32;20079;-65
2021/06/04 05:28:36;;;;;;;2.67;2.08;;;16.30;69.10;;;;;;4327872;33;20160;-66
2021/06/04 05:31:05;;;;;;;5.00;2.35;;;16.30;67.60;;;;;;4334978;33;20097;-65
2021/06/04 05:33:41;;;;;;;4.40;2.22;;;16.40;68.30;;;;;;4337261;33;20497;-64
2021/06/04 05:36:14;;;;;;;3.65;2.20;;;16.40;68.20;;;;;;4333620;33;20154;-66
2021/06/04 05:38:41;;;;;;;4.75;2.37;;;16.40;67.50;;;;;;4331861;33;20119;-67
2021/06/04 05:41:07;;;;;;;5.25;2.17;;;16.50;68.90;;;;;;4337639;32;20199;-69
2021/06/04 05:43:36;;;;;;;7.32;3.25;;;16.50;68.00;;;;;;4338944;33;20116;-66
2021/06/04 05:46:03;;;;;;;4.62;2.62;;;16.50;68.20;;;;;;4315002;33;20068;-65
2021/06/04 05:48:29;;;;;;;3.35;2.42;;;16.50;68.10;;;;;;4330445;33;20063;-66
2021/06/04 05:51:01;;;;;;;4.05;2.65;;;16.50;68.70;;;;;;4337067;33;20086;-65
2021/06/04 05:53:29;;;;;;;5.87;2.22;;;16.50;69.70;;;;;;4339299;33;20055;-65
2021/06/04 05:55:56;;;;;;;3.90;2.60;;;16.40;70.90;;;;;;4323381;33;20134;-65
2021/06/04 05:58:22;;;;;;;7.05;2.62;;;16.40;72.20;;;;;;4318887;33;20059;-65
2021/06/04 06:00:51;;;;;;;4.05;2.30;;;16.40;72.40;;;;;;4308887;33;20521;-65
2021/06/04 06:03:22;;;;;;;6.43;2.55;;;16.50;72.00;;;;;;4331586;33;20469;-67
2021/06/04 06:05:49;;;;;;;2.80;2.12;;;16.40;73.40;;;;;;4317803;33;20071;-67
2021/06/04 06:08:16;;;;;;;5.50;2.22;;;16.40;74.50;;;;;;4337015;33;20085;-71
2021/06/04 06:10:42;;;;;;;3.47;2.72;;;16.40;76.60;;;;;;4317453;33;20095;-69
2021/06/04 06:13:08;;;;;;;4.20;2.20;;;16.20;87.60;;;;;;4324055;33;20534;-63
2021/06/04 06:15:34;;;;;;;5.25;2.50;;;15.70;99.80;;;;;;4337257;32;20173;-65
2021/06/04 06:18:01;;;;;;;5.43;2.70;;;15.60;99.90;;;;;;4335440;33;20445;-64
2021/06/04 06:20:32;;;;;;;4.57;2.20;;;15.40;99.90;;;;;;4336253;33;20452;-66
2021/06/04 06:22:59;;;;;;;7.18;2.60;;;15.30;99.90;;;;;;4327385;33;20172;-66
2021/06/04 06:25:41;;;;;;;7.12;2.72;;;15.30;99.90;;;;;;4331867;33;20071;-66
2021/06/04 06:28:09;;;;;;;8.07;2.80;;;15.30;99.90;;;;;;4350266;33;20064;-64
2021/06/04 06:30:35;;;;;;;4.00;2.70;;;15.30;99.90;;;;;;4329387;33;20620;-65
2021/06/04 06:33:02;;;;;;;6.05;2.70;;;15.10;99.90;;;;;;4316600;33;20457;-65
2021/06/04 06:35:48;;;;;;;6.57;3.10;;;15.10;99.90;;;;;;4328509;33;20075;-65
2021/06/04 06:38:14;;;;;;;8.38;3.15;;;15.00;99.90;;;;;;4317059;33;20113;-65
2021/06/04 06:40:41;;;;;;;4.62;2.83;;;14.60;99.90;;;;;;4336753;33;20118;-66
2021/06/04 06:43:09;;;;;;;7.30;3.12;;;14.70;99.90;;;;;;4330672;33;20071;-66
2021/06/04 06:45:37;;;;;;;5.65;3.22;;;14.60;99.90;;;;;;4320196;33;20063;-65
2021/06/04 06:48:03;;;;;;;5.90;2.85;;;14.60;99.90;;;;;;4318770;33;20071;-70
2021/06/04 06:50:30;;;;;;;6.68;2.90;;;14.70;99.90;;;;;;4325945;33;20622;-66
2021/06/04 06:53:00;;;;;;;5.07;2.53;;;14.80;99.90;;;;;;4326132;33;20086;-66
2021/06/04 06:55:26;;;;;;;6.85;2.78;;;14.80;99.90;;;;;;4320641;33;20066;-67
2021/06/04 06:57:52;;;;;;;3.75;2.60;;;14.90;99.90;;;;;;4331083;33;20063;-65
2021/06/04 07:00:25;;;;;;;4.90;2.60;;;14.90;99.90;;;;;;4295357;33;20083;-64
2021/06/04 07:02:51;;;;;;;6.32;3.10;;;14.90;99.90;;;;;;4329085;33;20063;-64
2021/06/04 07:05:21;;;;;;;3.50;2.50;;;14.80;99.90;;;;;;4314082;33;20575;-64
2021/06/04 07:07:47;;;;;;;3.87;2.50;;;14.80;99.90;;;;;;4329348;33;20073;-64
2021/06/04 07:10:16;;;;;;;4.15;2.78;;;15.00;99.90;;;;;;4329419;33;20103;-64
2021/06/04 07:12:43;;;;;;;3.55;2.62;;;15.00;99.90;;;;;;4317553;33;20074;-67
2021/06/04 07:15:11;;;;;;;5.05;2.90;;;15.00;99.90;;;;;;4314484;33;20082;-65
2021/06/04 07:17:38;;;;;;;4.53;3.00;;;14.80;99.90;;;;;;4327768;33;20066;-65
2021/06/04 07:20:07;;;;;;;4.43;2.80;;;14.80;99.90;;;;;;4332295;33;20098;-63
2021/06/04 07:22:34;;;;;;;4.47;2.75;;;14.80;99.90;;;;;;4322804;33;20094;-65
2021/06/04 07:25:03;;;;;;;5.47;3.15;;;14.50;99.90;;;;;;4318749;33;20461;-66
2021/06/04 07:27:30;;;;;;;5.12;3.08;;;14.50;99.90;;;;;;4329965;33;20087;-67
2021/06/04 07:29:56;;;;;;;3.92;2.62;;;14.70;99.90;;;;;;4302447;32;20075;-64
2021/06/04 07:32:23;;;;;;;6.82;3.28;;;14.80;99.90;;;;;;4324259;33;20094;-65
2021/06/04 07:34:49;;;;;;;3.92;2.78;;;14.70;99.90;;;;;;4320077;32;20086;-64
2021/06/04 07:37:15;;;;;;;4.60;3.08;;;14.70;99.90;;;;;;4326030;33;20087;-65
2021/06/04 07:39:42;;;;;;;5.70;3.12;;;14.70;99.90;;;;;;4340334;33;20487;-65
2021/06/04 07:42:11;;;;;;;4.10;2.87;;;14.90;99.90;;;;;;4333485;32;20083;-65
2021/06/04 07:44:44;;;;;;;4.78;2.95;;;14.80;99.90;;;;;;4337146;33;20154;-64
2021/06/04 07:47:13;;;;;;;5.07;3.17;;;14.70;99.90;;;;;;4343191;32;20079;-66
2021/06/04 07:49:40;;;;;;;5.75;3.47;;;14.60;99.90;;;;;;4331745;33;20133;-67
2021/06/04 07:52:07;;;;;;;5.03;3.37;;;14.80;99.90;;;;;;4324066;33;20079;-63
2021/06/04 07:54:35;;;;;;;9.23;3.50;;;14.60;99.90;;;;;;4306406;32;20106;-65
2021/06/04 07:57:02;;;;;;;4.28;2.97;;;14.40;99.90;;;;;;4328572;32;20117;-64
2021/06/04 07:59:29;;;;;;;4.12;3.25;;;14.60;99.90;;;;;;4341365;33;20070;-65
2021/06/04 08:01:55;;;;;;;6.43;3.30;;;14.50;99.90;;;;;;4336195;33;20130;-65
2021/06/04 08:04:21;;;;;;;6.82;3.45;;;14.40;99.90;;;;;;4323650;32;20054;-65
2021/06/04 08:06:50;;;;;;;6.15;3.35;;;14.40;99.90;;;;;;4346005;32;20094;-64
2021/06/04 08:09:17;;;;;;;5.32;3.30;;;14.40;99.90;;;;;;4327876;33;20203;-66
2021/06/04 08:11:55;;;;;;;6.05;3.50;;;14.50;99.90;;;;;;4343709;32;20228;-68
2021/06/04 08:14:23;;;;;;;6.40;3.37;;;14.40;99.90;;;;;;4315689;32;20155;-65
2021/06/04 08:16:50;;;;;;;4.80;3.25;;;14.40;99.90;;;;;;4320374;32;20066;-65
2021/06/04 08:19:17;;;;;;;6.93;3.50;;;14.40;99.90;;;;;;4326860;33;20168;-66
2021/06/04 08:21:49;;;;;;;7.22;3.37;;;14.60;99.90;;;;;;4343019;33;20067;-65
2021/06/04 08:24:19;;;;;;;4.55;3.22;;;14.60;99.90;;;;;;4339419;32;20066;-67
2021/06/04 08:26:47;;;;;;;4.60;2.97;;;14.60;99.90;;;;;;4321711;32;20524;-65
2021/06/04 08:29:14;;;;;;;6.18;3.80;;;14.60;99.90;;;;;;4321392;32;20131;-65
2021/06/04 08:31:41;;;;;;;5.43;3.75;;;14.50;99.90;;;;;;4322903;32;20067;-65
2021/06/04 08:34:08;;;;;;;5.05;3.22;;;14.50;99.90;;;;;;4319157;32;20070;-66
2021/06/04 08:36:37;;;;;;;9.52;3.92;;;14.60;99.90;;;;;;4320929;33;20059;-61
2021/06/04 08:39:18;;;;;;;9.32;4.00;;;14.60;99.90;;;;;;4303406;33;20094;-69
2021/06/04 08:42:14;;;;;;;4.43;3.40;;;14.50;99.90;;;;;;4330116;32;20078;-70
2021/06/04 08:45:10;;;;;;;4.40;2.80;;;14.50;99.90;;;;;;4320950;33;20504;-72
2021/06/04 08:47:37;;;;;;;8.02;3.75;;;14.50;99.90;;;;;;4334232;32;20609;-73
2021/06/04 08:50:12;;;;;;;5.70;3.40;;;14.40;99.90;;;;;;4332921;33;20155;-70
2021/06/04 08:53:02;;;;;;;4.80;3.17;;;14.20;99.90;;;;;;4341490;33;20063;-69
2021/06/04 08:55:43;;;;;;;5.25;3.58;;;14.20;99.90;;;;;;4348110;32;20074;-73
2021/06/04 08:58:36;;;;;;;4.43;3.10;;;14.20;99.90;;;;;;4325142;32;20074;-74
2021/06/04 09:01:46;;;;;;;7.07;3.70;;;14.30;99.90;;;;;;4315111;33;20063;-72
2021/06/04 09:04:16;;;;;;;5.65;3.75;;;14.20;99.90;;;;;;4337428;32;20097;-72
2021/06/04 09:06:49;;;;;;;4.90;3.55;;;14.30;99.90;;;;;;4339752;33;20184;-73
2021/06/04 09:09:46;;;;;;;5.60;4.03;;;14.40;99.90;;;;;;3789910;37;20099;-72
2021/06/04 09:12:30;;;;;;;6.68;3.75;;;14.30;99.90;;;;;;4369586;32;20170;-73
2021/06/04 09:14:59;;;;;;;5.70;4.03;;;14.40;99.90;;;;;;4338337;32;20085;-70
2021/06/04 09:17:47;;;;;;;4.85;3.40;;;14.30;99.90;;;;;;4352997;32;20093;-71
2021/06/04 09:20:25;;;;;;;7.25;3.55;;;14.30;99.90;;;;;;4359110;32;20170;-69
2021/06/04 09:23:02;;;;;;;5.20;3.47;;;14.40;99.90;;;;;;4364525;32;20148;-70
2021/06/04 09:25:30;;;;;;;5.07;3.85;;;14.40;99.90;;;;;;4347401;32;20170;-72
2021/06/04 09:28:12;;;;;;;5.62;3.70;;;14.40;99.90;;;;;;4355998;32;20457;-72
2021/06/04 09:30:48;;;;;;;4.95;3.83;;;14.40;99.90;;;;;;4367224;32;20074;-73
2021/06/04 09:33:18;;;;;;;5.82;4.20;;;14.40;99.90;;;;;;4377547;32;20126;-73
2021/06/04 09:36:17;;;;;;;6.25;4.03;;;14.40;99.90;;;;;;4364768;32;20051;-72
2021/06/04 09:38:46;;;;;;;6.93;4.43;;;14.60;99.90;;;;;;4353714;32;20494;-75
2021/06/04 09:41:43;;;;;;;6.95;4.40;;;14.50;99.90;;;;;;4354434;32;20070;-72
2021/06/04 09:44:22;;;;;;;6.72;4.53;;;14.30;99.90;;;;;;4371393;32;20074;-73
2021/06/04 09:47:15;;;;;;;6.18;4.05;;;14.40;99.90;;;;;;4359979;32;20149;-73
2021/06/04 09:49:42;;;;;;;6.93;4.68;;;14.40;99.90;;;;;;4348308;32;20101;-72
2021/06/04 09:52:31;;;;;;;6.03;3.90;;;14.40;99.90;;;;;;4365654;32;20062;-72
2021/06/04 09:55:26;;;;;;;5.55;4.30;;;14.30;99.90;;;;;;4352167;32;20077;-73
2021/06/04 09:58:14;;;;;;;6.97;4.37;;;14.40;99.90;;;;;;4375759;32;20079;-74
2021/06/04 10:00:51;;;;;;;6.87;4.57;;;14.30;99.90;;;;;;4355059;32;20150;-69
2021/06/04 10:03:42;;;;;;;6.53;4.62;;;14.40;99.90;;;;;;4361211;32;20089;-78
2021/06/04 10:06:35;;;;;;;6.37;4.53;;;14.50;99.90;;;;;;4360214;32;20166;-71
2021/06/04 10:09:19;;;;;;;6.45;4.90;;;14.30;99.90;;;;;;4364693;32;20070;-78
2021/06/04 10:11:54;;;;;;;6.70;5.18;;;14.40;99.90;;;;;;4349399;32;20124;-72
2021/06/04 10:14:55;;;;;;;6.47;4.72;;;14.70;99.90;;;;;;4344814;32;20156;-73
2021/06/04 10:20:36;;;;;;;5.82;4.43;;;14.50;99.90;;;;;;4351584;32;20183;-71
2021/06/04 10:23:43;;;;;;;6.37;4.05;;;14.50;99.90;;;;;;4355805;32;20077;-73
2021/06/04 10:26:29;;;;;;;7.37;4.07;;;14.60;99.90;;;;;;4354478;32;20094;-73
2021/06/04 10:29:16;;;;;;;7.27;4.40;;;14.80;99.90;;;;;;4345751;32;20161;-73
2021/06/04 10:32:07;;;;;;;6.37;3.83;;;14.50;99.90;;;;;;4343693;32;20124;-70
2021/06/04 10:34:44;;;;;;;6.60;4.50;;;14.60;99.90;;;;;;4342431;32;20108;-69
2021/06/04 10:37:38;;;;;;;5.68;4.18;;;14.60;99.90;;;;;;4356690;32;20090;-71
2021/06/04 10:40:15;;;;;;;8.48;4.50;;;14.60;99.90;;;;;;4349748;32;20059;-75
2021/06/04 10:43:06;;;;;;;7.18;4.53;;;14.50;99.90;;;;;;4354614;32;20560;-79
2021/06/04 10:45:40;;;;;;;7.37;4.45;;;14.50;99.90;;;;;;4363941;32;20078;-75
2021/06/04 10:49:00;;;;;;;5.53;4.18;;;14.60;99.90;;;;;;4344521;32;20085;-72
2021/06/04 10:51:58;;;;;;;6.15;4.30;;;14.80;99.90;;;;;;4356728;32;20492;-74
2021/06/04 10:54:38;;;;;;;7.28;3.92;;;14.70;99.90;;;;;;4356201;32;20103;-71
2021/06/04 10:57:31;;;;;;;6.28;4.62;;;14.80;99.90;;;;;;4343230;32;20082;-71
2021/06/04 11:00:20;;;;;;;6.90;4.57;;;14.60;99.90;;;;;;4356214;32;20513;-66
2021/06/04 11:03:15;;;;;;;6.07;4.45;;;14.50;99.90;;;;;;4338089;32;20051;-70
2021/06/04 11:05:53;;;;;;;6.68;4.70;;;14.80;99.90;;;;;;4358508;32;20059;-71
2021/06/04 11:08:49;;;;;;;5.40;4.53;;;14.80;99.90;;;;;;4364427;32;20152;-72
2021/06/04 11:12:07;;;;;;;6.10;3.97;;;14.70;99.90;;;;;;4340217;32;20074;-70
2021/06/04 11:15:07;;;;;;;5.05;3.80;;;14.80;99.90;;;;;;4360374;32;20207;-73
2021/06/04 11:17:42;;;;;;;4.85;3.78;;;14.90;99.90;;;;;;4347538;32;20453;-71
2021/06/04 11:20:15;;;;;;;4.85;3.70;;;14.70;99.90;;;;;;4342617;32;20437;-74
2021/06/04 11:22:56;;;;;;;5.40;3.60;;;14.70;99.90;;;;;;4346542;32;20070;-68
2021/06/04 11:25:40;;;;;;;6.45;4.00;;;14.60;99.90;;;;;;4344898;32;20121;-66
2021/06/04 11:28:26;;;;;;;5.20;3.60;;;14.60;99.90;;;;;;4349388;32;20070;-64
2021/06/04 11:30:54;;;;;;;5.27;3.40;;;14.60;99.90;;;;;;4352884;32;20082;-69
2021/06/04 11:33:35;;;;;;;7.07;3.47;;;14.70;99.90;;;;;;4338628;32;20075;-73
2021/06/04 11:36:30;;;;;;;4.68;3.25;;;14.60;99.90;;;;;;4334979;32;20074;-71
2021/06/04 11:39:12;;;;;;;4.78;3.28;;;14.70;99.90;;;;;;4337678;32;20081;-70
2021/06/04 11:41:58;;;;;;;4.47;3.30;;;14.80;99.90;;;;;;4336759;32;20090;-70
2021/06/04 11:45:03;;;;;;;3.87;3.20;;;14.50;99.90;;;;;;4349373;32;20524;-71
2021/06/04 11:47:32;;;;;;;4.65;3.40;;;14.60;99.90;;;;;;4333718;32;20112;-74
2021/06/04 11:49:59;;;;;;;4.07;2.95;;;14.50;99.90;;;;;;4336039;32;20099;-70
2021/06/04 11:52:45;;;;;;;4.87;3.42;;;14.50;99.90;;;;;;4366566;32;20090;-71
2021/06/04 11:55:27;;;;;;;5.93;3.75;;;14.50;99.90;;;;;;4334598;32;20561;-69
2021/06/04 11:58:17;;;;;;;5.93;4.30;;;14.60;99.90;;;;;;4346795;32;20211;-69
2021/06/04 12:00:53;;;;;;;5.85;4.32;;;14.60;99.90;;;;;;4353051;32;20066;-75
2021/06/04 12:03:32;;;;;;;6.03;4.60;;;14.60;99.90;;;;;;4334398;32;20449;-66
2021/06/04 12:06:27;;;;;;;7.60;4.32;;;14.50;99.90;;;;;;4329937;32;20155;-68
2021/06/04 12:08:55;;;;;;;6.00;4.03;;;14.50;99.90;;;;;;4361454;32;20091;-65
2021/06/04 12:11:22;;;;;;;5.82;3.75;;;14.60;99.90;;;;;;4318506;32;20511;-66
2021/06/04 12:13:49;;;;;;;5.10;3.50;;;14.50;99.90;;;;;;4346103;32;20078;-67
2021/06/04 12:16:30;;;;;;;5.90;3.60;;;14.40;99.90;;;;;;4347363;32;20074;-68
2021/06/04 12:19:26;;;;;;;6.28;3.75;;;14.40;99.90;;;;;;4344944;32;20438;-71
2021/06/04 12:22:37;;;;;;;5.53;3.90;;;14.50;99.90;;;;;;4349722;32;20559;-66
2021/06/04 12:25:05;;;;;;;4.75;3.35;;;14.40;99.90;;;;;;4350769;32;20066;-64
2021/06/04 12:27:37;;;;;;;4.35;3.47;;;14.40;99.90;;;;;;4349752;32;20063;-63
2021/06/04 12:30:04;;;;;;;4.78;3.65;;;14.30;99.90;;;;;;4332237;32;20543;-63
2021/06/04 12:32:30;;;;;;;6.85;3.78;;;14.30;99.90;;;;;;4363143;32;20165;-64
2021/06/04 12:35:00;;;;;;;7.47;4.07;;;14.20;99.90;;;;;;4360118;32;20114;-64
2021/06/04 12:37:37;;;;;;;8.55;4.47;;;14.30;99.90;;;;;;4338909;32;20073;-63
2021/06/04 12:40:29;;;;;;;5.47;4.10;;;14.20;99.90;;;;;;4357144;32;20523;-62
2021/06/04 12:43:12;;;;;;;8.25;4.40;;;14.30;99.90;;;;;;4351407;32;20066;-63
2021/06/04 12:46:00;;;;;;;6.75;4.00;;;14.20;99.90;;;;;;4342426;32;20088;-63
2021/06/04 12:48:40;;;;;;;5.22;3.65;;;14.30;99.90;;;;;;4354357;32;20075;-61
2021/06/04 12:51:22;;;;;;;5.53;3.92;;;14.20;99.90;;;;;;4338834;32;20085;-63
2021/06/04 12:54:12;;;;;;;8.00;4.57;;;14.30;99.90;;;;;;4343374;32;20077;-66
2021/06/04 12:56:49;;;;;;;6.25;4.20;;;14.30;99.90;;;;;;4341072;32;20078;-64
2021/06/04 12:59:18;;;;;;;;;;;14.40;99.90;;;;;;4348631;32;20070;-66
2021/06/04 13:02:08;;;;;;;6.75;4.28;;;14.30;99.90;;;;;;4329799;32;21093;-64
2021/06/04 13:04:45;;;;;;;6.50;4.40;;;14.40;99.90;;;;;;4329854;32;20102;-65
2021/06/04 13:07:19;;;;;;;5.85;4.32;;;14.40;99.90;;;;;;4330761;32;20117;-74
2021/06/04 13:10:23;;;;;;;5.55;4.18;;;14.40;99.90;;;;;;4347655;32;20059;-66
2021/06/04 13:13:09;;;;;;;8.32;5.07;;;14.50;99.90;;;;;;4332982;32;20513;-67
2021/06/04 13:15:35;;;;;;;8.25;5.18;;;14.40;99.90;;;;;;4337518;32;20132;-68
2021/06/04 13:18:05;;;;;;;8.43;5.12;;;14.30;99.90;;;;;;4323673;32;20507;-68
2021/06/04 13:20:37;;;;;;;7.93;4.85;;;14.40;99.90;;;;;;4331649;32;20089;-72
2021/06/04 13:23:26;;;;;;;9.95;5.07;;;14.40;99.90;;;;;;4333613;32;20445;-70
2021/06/04 13:26:25;;;;;;;8.57;5.07;;;14.50;99.90;;;;;;4352814;32;20203;-72
2021/06/04 13:28:57;;;;;;;8.30;5.43;;;14.60;99.90;;;;;;4324471;32;20497;-70
2021/06/04 13:31:33;;;;;;;8.23;5.40;;;14.50;99.90;;;;;;4340343;32;20116;-65
2021/06/04 13:34:04;;;;;;;7.93;5.25;;;14.50;99.90;;;;;;4320370;32;20086;-72